Airfield :
LOGIN :

Register | Disclaimer

   EN    FR    IT 

 










Legend :    VFR   Marginal VFR   IFR   Intensive IFR   Very Intensive IFR
Visi :
Ceiling :
>= 8 km
>= 3000ft
5 to 8 km
1000 to 3000 ft
1500m to 5 km
500 to 1000 ft
800 to 1500m
200 to 500 ft
< 800m
< 200 ft
Symbols :   Thunderstorms  Fog  Heavy snow  Heavy precipitations  Wind > 20 kt
SIGMETs :     Misc.  Thunderstorms  Icing  Turbulence  Mountain Waves  Volcanic Ashes







- Airport Elevation : 203 ft
- IATA code : XMJ
- Download approach charts


LFBM - Mont-De-Marsan

CURRENT METAR :
  • 100300Z AUTO 23003KT 7000 NSC 08/08 Q1033 TEMPO 2000 BR

EXPIRED METARs :
  • 100230Z AUTO 22002KT 9000 FEW039 BKN054 08/07 Q1033 TEMPO 2000 BR
  • 100200Z AUTO 24002KT 8000 FEW033 SCT052 08/07 Q1033 NOSIG
  • 100130Z AUTO 25003KT CAVOK 08/07 Q1033 NOSIG
  • 100100Z AUTO 26004KT 9000 NSC 09/08 Q1033 NOSIG
  • 100030Z AUTO 27003KT 9000 SCT022 SCT031 09/08 Q1034 NOSIG

TAF TAF LFBM
Valid from the 10 at 03:00 until the 11 at 03:00 UTC


100200Z 1003/1103 23003KT 9999 SCT045
PROB30
TEMPO 1004/1007 2000 BR
No reported NOTAMs for that airfield.
1 SIGMET reported for the Bordeaux FIR (LFBB) :
 
Severe turbulence
LFBB SIGMET 1 VALID 100200/100600 LFPW
LFBB BORDEAUX FIR/UIR SEV TURB FCST SE OF LINE N4345 E00245 - N4230 E00130 SFC/FL080 STNR NC=



MET'MAP, your aeronautical weather chart ! - Copyright ORBIFLY December 2007 - Disclaimer

ORBIFLY MET'MAP TEAM :

Programming & Development : Alexandra Zaïnal
Concept & Development : Baudouin d'Aumeries
Co-Development & Prog : Marc-Olivier Méhu
Technical & hardware support : Manuel Goepfert

Contact : metmap@orbifly.com




SOURCES & CREDITS :

   NOAA